Florida AWOS List, Phone Numbers

USA |  
| Search AWOS

Rocky Mountain States: Montana | Wyoming | Colorado | New Mexico

Complete weather reports: Florida

Legend: KFNL = METAR available Follow your local AWOS on AV Mobile = METAR available on AV Mobile
Station Florida Location Frequency Phone
KAQQICAO ID KAQQ Apalachicola, Apalachicola
KAAFFAA ID AAF, ASOS, KAAF 170053Z AUTO 00000KT 10SM FEW023 FEW032 26/24 A2997 Follow KAAF on AV Mobile APALACHICOLA MUNICIPAL AIRPORT 119.925 850-653-8271
KNAEICAO ID KNAE Astor, Bombing Range Detachment Astor
KAVOFAA ID AVO, AWOS-3 AVON PARK 118.725 863-453-4223
KAGRFAA ID AGR Avon Park Gunnery Range
KBOWFAA ID BOW, AWOS-3, KBOW 170055Z AUTO 33003KT 10SM CLR 24/21 A3004 RMK AO2 Follow KBOW on AV Mobile Bartow Municipal 123.775 863-533-9004
F95FAA ID F95, AWOS-AV, KAEJ 170125Z AUTO 02004KT 10SM BKN120 21/M01 A3028 RMK AO2 T02061014 Follow  on AV Mobile BLOUNTSTOWN 119.350 850-674-1347
KBCTFAA ID BCT, AWOS-3, KBCT 170055Z 00000KT 10SM CLR M/M A3000 Follow KBCT on AV Mobile Boca Raton, Boca Raton Airport 121.125 561-391-2696
K1J0FAA ID 1J0, K1J0 132140Z AUTO 35014G18KT 3/4SM TS BR FEW024 OVC046 24/23 A3001 RMK AO2 TSB25 T02440228 PWINO $ Follow K1J0 on AV Mobile TRI COUNTY AIRPORT
KBKVFAA ID BKV, ASOS, KBKV 170053Z AUTO 13003KT 10SM CLR 24/23 A3002 RMK AO2 RAE08 SLP165 P0000 T02390233 Follow KBKV on AV Mobile BROOKSVILLE HERNANDO CO AIRPORT 134.725 352-799-5881
K1J4ICAO ID K1J4 Cape San Blas Coast Guard Station
KNZCICAO ID KNZC Cecil, Naval Air Station
2ISFAA ID 2IS, AWOS-3, KAEJ 170125Z AUTO 02004KT 10SM BKN120 21/M01 A3028 RMK AO2 T02061014 Follow  on AV Mobile CLEWISTON 124.175 863-983-7020
KX53ICAO ID KX53 Clewiston
KCOFFAA ID COF, KCOF 170058Z AUTO 30005KT 10SM CLR 26/24 A3000 RMK AO2 LTG DSNT SE-S AND NW SLP163 T02610237 Follow KCOF on AV Mobile Cocoa / Patrick Air Force Base
KXMRFAA ID XMR, KXMR 170058Z AUTO 31005KT 10SM CLR 26/22 A2999 RMK AO2 LTG DSNT N AND S SLP159 T02640219 Follow KXMR on AV Mobile Cocoa Beach, Cape Canaveral Air Force Station Skid Strip
KCEWFAA ID CEW, ASOS, KCEW 170053Z AUTO 31006KT 10SM -RA OVC100 23/ A3002 Follow KCEW on AV Mobile CRESTVIEW SIKES AIRPORT 119.275 850-682-1237
KEGIFAA ID EGI, KEGI 170055Z 36004KT 5SM -RA BR FEW007 BKN027 OVC080 23/23 A3000 RMK AO2A SLP160 P0012 T02260226 $ Follow KEGI on AV Mobile Duke Field / Eglin Auxiliary
KCTYFAA ID CTY, KCTY 170053Z AUTO 00000KT 24/ A2999 Follow KCTY on AV Mobile CROSS CITY AIRPORT
KCGCFAA ID CGC, AWOS-3, KCGC 170055Z AUTO 00000KT 10SM SCT026 SCT036 SCT050 24/22 A3001 RMK AO2 PWINO Follow KCGC on AV Mobile CRYSTAL RIVER 118.325 352-563-6600
KDABFAA ID DAB, ASOS, KDAB 170053Z 26005KT 10SM -RA BKN110 OVC200 23/23 A3000 Follow KDAB on AV Mobile DAYTONA BEACH INTERNATIONAL 386-253-7469
54JFAA ID 54J, AWOS-3P, KAEJ 170125Z AUTO 02004KT 10SM BKN120 21/M01 A3028 RMK AO2 T02061014 Follow  on AV Mobile DEFUNIAK SPRINGS 118.725 850-892-0147
KDEDFAA ID DED, AWOS-3, KDED 170055Z AUTO 24005KT 10SM CLR 24/22 A3002 RMK AO1 Follow KDED on AV Mobile DELAND 119.575 386-740-5811
KDTSFAA ID DTS, ASOS, KDTS 170053Z AUTO 01005KT 10SM SCT026 OVC085 26/23 A2999 RMK AO2 SLP156 T02560233 TSNO Follow KDTS on AV Mobile DESTIN-FT WALTON BEACH AIRPORT 133.925 850-654-7128
KX91ICAO ID KX91 Egmont Key Coast Guard Station
KFHBFAA ID FHB, AWOS-3, KFHB 161855Z AUTO 00000KT M1/4SM TS OVC005 26/24 A3000 RMK AO1 LTG DSNT NW THRU SE Follow KFHB on AV Mobile FERNANDINA BEACH 118.075 904-277-7323
KFXEFAA ID FXE, ASOS, KFXE 170053Z 00000KT 10SM CLR 26/24 A3000 Follow KFXE on AV Mobile FORT LAUDERDALE EXECUTIVE 954-772-2537
KFLLFAA ID FLL, ASOS, KFLL 170053Z 33003KT 10SM FEW030 SCT100 BKN250 28/23 A2999 Follow KFLL on AV Mobile FORT LAUDERDALE/HOLLYWOOD 954-359-7857
KFMYFAA ID FMY, ASOS, KFMY 170053Z AUTO 08008KT 10SM FEW060 28/22 A3001 RMK AO2 SLP163 T02830217 Follow KFMY on AV Mobile FORT MYERS PAGE FIELD 239-936-2318
KRSWFAA ID RSW, ASOS, KRSW 170053Z 09007KT 10SM SCT055 BKN070 25/20 A3002 Follow KRSW on AV Mobile FORT MYERS SW FL INTERNATIONAL AIRPORT 239-561-0966
KX82ICAO ID KX82 Fort Pierce Coast Guard Station
KFPRFAA ID FPR, ASOS, KFPR 170100Z AUTO 00000KT 8SM -TSRA SCT055 BKN080 OVC100 24/22 A3002 Follow KFPR on AV Mobile FORT PIERCE ST LUCIE 772-489-4281
KX86ICAO ID KX86 Fowey Rocks Coast Guard Station
KX89ICAO ID KX89 Ft. Myers Beach Coast Guard Station
KGNVFAA ID GNV, ASOS, KGNV 170053Z 25005KT 6SM RA BR BKN010 BKN110 23/22 A2999 Follow KGNV on AV Mobile GAINESVILLE REGIONAL AIRPORT 352-335-8672
KHWOFAA ID HWO, ASOS, KHWO 170053Z AUTO 28003KT 10SM CLR 27/23 A3001 RMK AO2 SLP162 T02720228 Follow KHWO on AV Mobile HOLLYWOOD NORTH PERRY AIRPORT 954-983-5904
X51FAA ID X51, AWOS-3, KAEJ 170125Z AUTO 02004KT 10SM BKN120 21/M01 A3028 RMK AO2 T02061014 Follow  on AV Mobile HOMESTEAD 118.375 (305) 247-2791
KHSTFAA ID HST, KHST 170058Z AUTO 34002KT 10SM CLR 26/23 A3001 RMK AO2 SLPNO T02590226 Follow KHST on AV Mobile Homestead Air Force Base
KIMMFAA ID IMM, AWOS-3, KIMM 170115Z AUTO 00000KT 1 1/4SM BKN002 BKN010 OVC020 23/ A3003 RMK A01 P000 Follow KIMM on AV Mobile IMMOKALEE 118.525 239-657-2038
KINFFAA ID INF, AWOS-3, KINF 170055Z AUTO 21003KT 10SM -RA SCT055 OVC090 23/18 A3002 RMK AO2 Follow KINF on AV Mobile INVERNESS 119.975 352-341-0264
KX84ICAO ID KX84 Islamorada Coast Guard Station
KHEGFAA ID HEG, AWOS-3 JACKSONVILLE 119.275 904-695-0334
KCRGFAA ID CRG, ASOS, KCRG 170100Z 23003KT 10SM -RA BKN013 25/23 A2995 RMK AO2 RAB0058 P0000 T02500233 Follow KCRG on AV Mobile JACKSONVILLE CRAIG MUN 904-646-4670
KJAXFAA ID JAX, ASOS, KJAX 170056Z 23005KT 10SM -RA SCT018 BKN110 OVC200 24/24 A2995 Follow KJAX on AV Mobile JACKSONVILLE INTERNATIONAL 904-741-4304
KNIPFAA ID NIP, KNIP 170053Z 22008KT 10SM -RA FEW010 BKN110 OVC160 26/23 A2995 RMK AO2 SLP139 P0000 T02610233 $ Follow KNIP on AV Mobile JACKSONVILLE NAVAL AIR STN
KVQQFAA ID VQQ, AWOS-3, KVQQ 170055Z AUTO 20005KT 9SM -RA CLR 23/23 A2996 RMK AO2 P0002 Follow KVQQ on AV Mobile Jacksonville, Cecil Field Airport 125.275 904-778-6934
KNENFAA ID NEN NOLF WHITEHOUSE FIELD, FL
KX80ICAO ID KX80 Jupiter Inlet Coast Guard Station
KEYWFAA ID EYW, ASOS, KEYW 170053Z 02005KT 10SM FEW075 29/23 A3001 Follow KEYW on AV Mobile KEY WEST INTERNATIONAL AIRPORT 119.65 305-292-4046
KNQXFAA ID NQX, KNQX 170053Z 02008KT 10SM FEW025 SCT045 BKN120 29/23 A3001 RMK AO2 SLP161 T2 SET T02890233 $ Follow KNQX on AV Mobile KEY WEST NAVAL AIR STATION
K42JFAA ID 42J, AWOS-3, K42J 170055Z AUTO 27005KT 5SM 23/23 A2998 RMK AO1 TSNO Follow K42J on AV Mobile KEYSTONE HEIGHTS 124.275 352-473-8273
KLCQFAA ID LCQ, AWOS-3, KLCQ 170055Z AUTO 25007KT 10SM RA OVC002 22/22 A2999 RMK AO2 P0010 Follow KLCQ on AV Mobile LAKE CITY 120.675 386-754-9366
X07FAA ID X07, AWOS-3, KAEJ 170125Z AUTO 02004KT 10SM BKN120 21/M01 A3028 RMK AO2 T02061014 Follow  on AV Mobile LAKE WALES 124.225 863-678-1334
KX81ICAO ID KX81 Lake Worth Inlet
KLALFAA ID LAL, AWOS-3PT, KLAL 170050Z 00000KT 10SM BKN120 24/21 A3003 Follow KLAL on AV Mobile Lakeland Regional 118.025 863-834-2030
KLEEFAA ID LEE, ASOS, KLEE 170053Z AUTO 28005KT 10SM CLR 25/22 A3002 RMK AO2 SLP165 T02500222 Follow KLEE on AV Mobile LEESBURG REGIONAL AIRPORT 134.325 352-787-1565
24JFAA ID 24J, AWOS-3, KAEJ 170125Z AUTO 02004KT 10SM BKN120 21/M01 A3028 RMK AO2 T02061014 Follow  on AV Mobile LIVE OAK 118.225 386-362-1731
KX88ICAO ID KX88 Marathon Coast Guard Station
KMTHFAA ID MTH, ASOS, KMTH 170053Z AUTO 35009KT 10SM CLR 27/24 A3001 RMK AO2 SLP163 T02720244 Follow KMTH on AV Mobile MARATHON AIRPORT 135.525 305-743-8373
KMKYFAA ID MKY, AWOS-3, KMKY 170055Z AUTO 13004KT 10SM FEW110 25/23 A3001 RMK AO1 Follow KMKY on AV Mobile MARCO ISLAND 120.075 239-394-8187
KMAIFAA ID MAI, ASOS, KMAI 170053Z AUTO 05004KT 10SM CLR 23/23 A2998 RMK AO2 SLP151 T02280228 Follow KMAI on AV Mobile MARIANNA MUNICIPAL AIRPORT 133.525 850-482-6082
KHRTFAA ID HRT, KHRT 170058Z AUTO 36004KT 10SM BKN120 24/21 A2999 RMK AO2 DZB0019E0028 SLP157 P0000 T02360212 $ Follow KHRT on AV Mobile Hurlburt Field
KNRBFAA ID NRB, KNRB 170052Z 22008KT 10SM SCT035 BKN150 OVC250 25/23 A2995 RMK AO2 RAE02B27E42 SLP141 T2 SET P0000 T02500233 $ Follow KNRB on AV Mobile MAYPORT NAVAL AIR FACILITY
KMLBFAA ID MLB, ASOS, KMLB 170053Z 28005KT 10SM CLR 25/23 A3001 Follow KMLB on AV Mobile MELBOURNE INTERNATIONAL 321-723-7403
KCOIFAA ID COI, AWOS-3 Merritt Island, Merritt Island Airport 119.025 321-986-8864
KTNTFAA ID TNT, AWOS-3 MIAMI 119.075 (239) 695-9198
KX87ICAO ID KX87 Miami Beach Coast Guard Station
KAMXICAO ID KAMX Miami Nexrad
KTMBFAA ID TMB, ASOS, KTMB 170053Z 00000KT 10SM CLR 26/23 A3001 Follow KTMB on AV Mobile KENDALL-TAMIAMI EXEC AIRPORT 305-235-1332
KMIAFAA ID MIA, ASOS, KMIA 170053Z 24003KT 10SM FEW033 SCT080 BKN250 27/23 A3000 Follow KMIA on AV Mobile MIAMI INTERNATIONAL AIRPORT 305-870-0235
KOPFFAA ID OPF, KOPF 170053Z AUTO 29004KT 10SM CLR 27/23 A3000 Follow KOPF on AV Mobile MIAMI OPA LOCKA AIRPORT
KNFJFAA ID NFJ CHOCTAW, WHITING FIELD, NOLF
KNSEFAA ID NSE, KNSE 170056Z 10003KT 10SM SCT012 BKN030 OVC110 23/22 A3001 RMK AO2 RAE43 SLP149 P0000 T02330222 $ Follow KNSE on AV Mobile MILTON WHITING FIELD (NORTH)
KNDZFAA ID NDZ, KNDZ 170056Z 07007KT 10SM SCT012 SCT060 BKN110 OVC250 24/23 A3001 RMK AO2 RAE28 SLP148 SCT012 V BKN P0000 T02440228 $ Follow KNDZ on AV Mobile MILTON WHITING FIELD (SOUTH)
KAPFFAA ID APF, ASOS, KAPF 170053Z 12004KT 10SM FEW033 SCT041 26/22 A3001 Follow KAPF on AV Mobile NAPLES MUNICIPAL AIRPORT 239-643-9886
KRRFICAO ID KRRF New Port Richey, Tampa Bay Executive Airport
KEVBFAA ID EVB, AWOS-3, KEVB 170050Z 00000KT 10SM SCT075 24/22 A3000 Follow KEVB on AV Mobile New Smyrna Beach, New Smyrna Beach Municipal Airport 124.625 386-409-4705
KOCFFAA ID OCF, AWOS-3, KOCF 170055Z AUTO 21004KT 10SM CLR 23/22 A3001 RMK AO1 Follow KOCF on AV Mobile Ocala, Ocala International Airport-Jim Taylor Field 128.125 352-237-8525
KOBEFAA ID OBE, AWOS-3, KOBE 170055Z AUTO -RA 22/22 A3002 RMK AO2 LTG DSNT NE THRU S Follow KOBE on AV Mobile Okeechobee County Airport 118.675 863-467-1148
KORLFAA ID ORL, ASOS, KORL 170053Z 28007KT 10SM CLR 26/22 A3001 RMK AO2 SLP163 T02560222 Follow KORL on AV Mobile ORLANDO EXECUTIVE AIRPORT 407-658-6753
KMCOFAA ID MCO, ASOS, KMCO 170053Z 28005KT 10SM BKN150 OVC250 26/23 A3001 Follow KMCO on AV Mobile ORLANDO INTERNATIONAL AIRPORT 407-855-5235
KSFBFAA ID SFB, ASOS, KSFB 170053Z 26008KT 10SM CLR 25/22 A3000 Follow KSFB on AV Mobile ORLANDO SANFORD AIRPORT 407-321-9384
KISMFAA ID ISM, AWOS-3, KISM 162350Z 30011KT 10SM SKC 26/22 A3002 Follow KISM on AV Mobile Orlando, Kissimmee Municipal Airport 128.775 407-847-0533
KOMNFAA ID OMN, AWOS-3, KOMN 162250Z 25008KT 7SM SCT020 23/22 A2999 RMK LAST Follow KOMN on AV Mobile Ormond Beach, Ormond Beach Municipal Airport 118.475 386-615-7084
28JFAA ID 28J, AWOS-3, KAEJ 170125Z AUTO 02004KT 10SM BKN120 21/M01 A3028 RMK AO2 T02061014 Follow  on AV Mobile PALATKA 119.92 386-312-2212
KXFLFAA ID XFL, AWOS-3, KXFL 170055Z AUTO 22004KT 24/23 A2999 RMK AO2 LTG DSNT E T02370228 PWINO Follow KXFL on AV Mobile PALM COAST 128.325 386-437-7334
KECPFAA ID ECP, ASOS, KECP 170100Z 00000KT 10SM -RA FEW003 SCT100 24/23 A2998 RMK AO2 P0000 $ Follow KECP on AV Mobile PANAMA CITY 119.975 850-235-7857
KPFNICAO ID KPFN, KPFN 030253Z VRB03KT 10SM FEW023 25/23 A2989 Follow KPFN on AV Mobile PANAMA CITY-BAY CTY INTERNATIONAL
KPAMFAA ID PAM, KPAM 170058Z AUTO 06004KT 10SM FEW019 SCT025 OVC140 25/25 A2998 RMK AO2 SLP155 T02480248 $ Follow KPAM on AV Mobile Tyndall Air Force Base
KPNSFAA ID PNS, ASOS, KPNS 170053Z AUTO 01004KT 10SM FEW075 SCT110 22/22 A3000 Follow KPNS on AV Mobile PENSACOLA REGIONAL AIRPORT 850-436-4799
KNPAFAA ID NPA, KNPA 170056Z 33004KT 10SM SCT050 BKN100 OVC120 23/22 A3000 RMK AO2 SLP159 T2 SET T02280222 $ Follow KNPA on AV Mobile Pensacola, Naval Air Station
K40JFAA ID 40J, AWOS-3PT, K40J 170055Z AUTO 24004KT 10SM BKN060 BKN070 OVC085 23/22 A3000 RMK AO2 LTG DSNT S Follow K40J on AV Mobile PERRY-FOLEY AIRPORT 118.375 850-838-3526
FA54FAA ID FA54, Belfort CORAL CREEK
KPCMFAA ID PCM, AWOS-3, KPCM 170055Z AUTO 00000KT 10SM SCT120 24/ A3004 RMK AO2 Follow KPCM on AV Mobile Plant City, Plant City Municipal Airport 120.025 813-764-8259
KPMPFAA ID PMP, ASOS, KPMP 170053Z AUTO 00000KT 10SM CLR 28/22 A3000 RMK AO2 SLP159 T02780222 Follow KPMP on AV Mobile POMPANO BEACH AIRPARK 954-783-3720
K1J3ICAO ID K1J3 Ponce De Leon Inlet
KPGDFAA ID PGD, ASOS, KPGD 170053Z AUTO 05005KT 10SM CLR 26/23 A3003 RMK AO2 SLP170 T02610228 Follow KPGD on AV Mobile PUNTA GORDA CHARLOTTE COUNTY 135.675 941-639-0076
K1J5ICAO ID K1J5 Santa Rosa Coast Guard Station
KSRQFAA ID SRQ, ASOS, KSRQ 170053Z AUTO 36004KT 10SM CLR 27/22 A3000 Follow KSRQ on AV Mobile SARASOTA/BRADENTON INTERNATIONAL . 124.375 941-359-0117
KSEFFAA ID SEF, AWOS-3 SEBRING 119.475 863-655-6424
KSGJFAA ID SGJ, AWOS-3, KSGJ 170058Z 23004KT 10SM -RA SCT120 24/23 A2997 RMK AO2 RAB2359 SLP149 P0001 T02440233 Follow KSGJ on AV Mobile St. Augustine, St. Augustine Airport 904-824-7084
KPIEFAA ID PIE, ASOS, KPIE 170053Z 30003KT 10SM FEW095 SCT110 25/23 A3002 Follow KPIE on AV Mobile ST PETERSBURG/CLEARWATER 727-531-3456
KSPGFAA ID SPG, ASOS, KSPG 170053Z AUTO 32005KT 10SM CLR 27/23 A3000 RMK AO2 SLP159 T02670228 Follow KSPG on AV Mobile ST PETERSBURG WHITTED AIRPORT 118.875 727-821-4334
KSUAFAA ID SUA, AWOS-3, KSUA 170055Z AUTO 21003KT 10SM VCTS CLR 26/22 A3001 RMK AO2 LTG DSNT NW THRU NE Follow KSUA on AV Mobile Stuart, Witham Field Airport 772-692-7399
KTLHFAA ID TLH, ASOS, KTLH 170053Z 00000KT 10SM FEW020 SCT042 BKN120 OVC250 24/23 A2998 Follow KTLH on AV Mobile TALLAHASSEE REGIONAL AIRPORT 850-576-3665
KTBWICAO ID KTBW Tampa Bay Area
KMCFFAA ID MCF, KMCF 170058Z AUTO VRB05KT 10SM CLR 26/24 A3002 RMK AO2 SLP169 T02570243 Follow KMCF on AV Mobile Macdill Air Force Base, Fl.
KTPAFAA ID TPA, ASOS, KTPA 170053Z 35003KT 10SM OVC140 26/22 A3002 Follow KTPA on AV Mobile TAMPA INTERNATIONAL AIRPORT 813-873-7228
KTPFFAA ID TPF, AWOS-3, KTPF 131715Z AUTO 23004KT 10SM CLR 32/23 A3012 RMK AO2 Follow KTPF on AV Mobile Tampa, Peter O Knight Airport 118.925 813-251-6824
KVDFFAA ID VDF, AWOS-3, KVDF 170055Z AUTO 00000KT 10SM CLR 24/22 A3003 RMK AO2 Follow KVDF on AV Mobile Tampa, Vandenberg Airport 121.125 813-630-0924
KVLGICAO ID KVLG The Villages
KVVGICAO ID KVVG, KVVG 170055Z AUTO 00000KT 1 3/4SM BR 24/24 A2992 RMK A01 Follow KVVG on AV Mobile The Villages
KX68ICAO ID KX68 Titusville, NASA Shuttle Landing Facility
KTIXFAA ID TIX, KTIX 170050Z 28004KT 7SM SCT045 25/22 A3001 RMK LAST Follow KTIX on AV Mobile Titusville
KX21FAA ID X21, AWOS-3 Titusville, Arthur Dunn Air Park 119.725 321-385-0383
KTTSFAA ID TTS, KTTS 170058Z AUTO 27005KT 10SM FEW045 BKN160 26/22 A3000 RMK AO2 LTG DSNT S SLP162 T02550217 Follow KTTS on AV Mobile Titusville, NASA Shuttle Landing Facility
KVPSFAA ID VPS, KVPS 170057Z 01003KT 10SM -RA SCT020 BKN070 BKN100 24/23 A2999 RMK AO2A $ Follow KVPS on AV Mobile Valparaiso / Eglin Air Force Base
KVNCFAA ID VNC, AWOS-3, KVNC 170055Z AUTO RMK AO2 PWINO TSNO Follow KVNC on AV Mobile VENICE 119.275
KX90ICAO ID KX90 Venice Long Range Navigation
KVRBFAA ID VRB, ASOS, KVRB 170053Z 14004KT 6SM VCTS -RA BR BKN065 OVC080 23/22 A3002 Follow KVRB on AV Mobile VERO BEACH MUNICIPAL AIRPORT 772-978-9535
F45FAA ID F45, AWOS-3, KAEJ 170125Z AUTO 02004KT 10SM BKN120 21/M01 A3028 RMK AO2 T02061014 Follow  on AV Mobile WEST PALM BEACH 119.975 561-630-6932
KLNAFAA ID LNA, AWOS-3 WEST PALM BEACH 119.925 561-964-0308
KPBIFAA ID PBI, ASOS, KPBI 170053Z 20003KT 10SM SCT100 BKN250 27/23 A2999 Follow KPBI on AV Mobile PALM BEACH INTERNATIONAL 123.75 561-683-2548
FD38FAA ID FD38, Belfort WELLINGTON AERO CLUB
X60FAA ID X60, AWOS-3, KAEJ 170125Z AUTO 02004KT 10SM BKN120 21/M01 A3028 RMK AO2 T02061014 Follow  on AV Mobile WILLISTON 118.425 352-528-9949
KGIFFAA ID GIF, ASOS, KGIF 161753Z AUTO 34005KT 10SM CLR 33/20 A3006 RMK AO2 SLP174 T03280200 10328 20250 58021 TSNO Follow KGIF on AV Mobile WINTER HAVENS GILBERT AIRPORT 133.675 863-956-2097
KZPHFAA ID ZPH, ASOS, KZPH 170055Z AUTO 00000KT 10SM CLR 20/20 A3003 RMK AO2 Follow KZPH on AV Mobile ZEPHYRHILLS 118.975 813-780-0031

Click on the AV Mobile icon AV Mobile icon by any station to follow that AWOS feed on AirportView.net Mobile.

Garmin aera 796 $1999 at Avionics Specialists LLC
Bose A20 Aviation Headsets $995 at Avionics Specialists LLC